Time;durP1;ratioP1;P1;durP2;ratioP2;P2;SDS_P1;SDS_P2;PMS_P1;PMS_P2;Temp;Humidity;BMP_temperature;BMP_pressure;BME280_temperature;BME280_humidity;BME280_pressure;Samples;Min_cycle;Max_cycle;Signal;HPM_P1;HPM_P2
2022/03/08 00:02:48;;;;;;;11.38;5.97;;;;;;;;;;8299592;28;20385;-77
2022/03/08 00:06:50;;;;;;;14.50;6.47;;;;;;;;;;8298537;28;20405;-77
2022/03/08 00:10:53;;;;;;;18.58;7.07;;;;;;;;;;8298982;28;20052;-77
2022/03/08 00:14:57;;;;;;;20.98;6.82;;;;;;;;;;8299326;28;20046;-76
2022/03/08 00:19:00;;;;;;;29.52;10.00;;;;;;;;;;8286791;28;20042;-76
2022/03/08 00:23:02;;;;;;;26.33;10.30;;;;;;;;;;8299561;28;20393;-76
2022/03/08 00:27:05;;;;;;;33.90;10.23;;;;;;;;;;8274088;28;20073;-76
2022/03/08 00:31:09;;;;;;;23.30;9.38;;;;;;;;;;8299175;28;20041;-76
2022/03/08 00:35:12;;;;;;;21.67;8.65;;;;;;;;;;8277807;28;20061;-76
2022/03/08 00:39:15;;;;;;;19.02;8.88;;;;;;;;;;8298119;28;20095;-77
2022/03/08 00:43:17;;;;;;;20.45;9.27;;;;;;;;;;8297414;28;20049;-77
2022/03/08 00:47:21;;;;;;;19.08;9.23;;;;;;;;;;8298599;28;20405;-77
2022/03/08 00:51:24;;;;;;;20.00;9.30;;;;;;;;;;8292119;28;20046;-76
2022/03/08 00:55:29;;;;;;;22.45;8.88;;;;;;;;;;8292338;28;20116;-76
2022/03/08 00:59:32;;;;;;;25.30;9.35;;;;;;;;;;8297693;28;20041;-76
2022/03/08 01:03:36;;;;;;;20.23;8.55;;;;;;;;;;8297592;28;20104;-76
2022/03/08 01:07:39;;;;;;;19.50;9.00;;;;;;;;;;8297930;28;20053;-76
2022/03/08 01:11:42;;;;;;;19.60;9.30;;;;;;;;;;8297328;28;20409;-76
2022/03/08 01:15:45;;;;;;;23.15;9.13;;;;;;;;;;8297395;28;20099;-76
2022/03/08 01:19:49;;;;;;;23.15;10.05;;;;;;;;;;8298201;28;20057;-76
2022/03/08 01:23:51;;;;;;;32.75;13.90;;;;;;;;;;8293724;28;20478;-77
2022/03/08 01:27:55;;;;;;;31.15;14.40;;;;;;;;;;8297434;28;20050;-76
2022/03/08 01:31:57;;;;;;;30.05;12.55;;;;;;;;;;8298151;28;20490;-77
2022/03/08 01:36:01;;;;;;;25.13;12.07;;;;;;;;;;8302887;28;20050;-77
2022/03/08 01:40:05;;;;;;;25.15;12.55;;;;;;;;;;8318786;28;20485;-77
2022/03/08 01:44:09;;;;;;;24.52;11.80;;;;;;;;;;8321895;28;20049;-77
2022/03/08 01:48:12;;;;;;;26.45;10.73;;;;;;;;;;8317309;28;20058;-77
2022/03/08 01:52:17;;;;;;;29.80;12.75;;;;;;;;;;8300512;28;20104;-76
2022/03/08 01:56:20;;;;;;;30.25;11.80;;;;;;;;;;8304135;28;20045;-77
2022/03/08 02:00:26;;;;;;;30.40;11.55;;;;;;;;;;8324091;28;20045;-77
2022/03/08 02:04:28;;;;;;;25.52;11.80;;;;;;;;;;8332384;28;20046;-78
2022/03/08 02:08:32;;;;;;;32.88;11.27;;;;;;;;;;8317035;28;20064;-77
2022/03/08 02:12:35;;;;;;;26.00;11.48;;;;;;;;;;8329524;28;20466;-77
2022/03/08 02:16:38;;;;;;;29.77;10.20;;;;;;;;;;8302951;28;20065;-77
2022/03/08 02:20:41;;;;;;;25.98;11.73;;;;;;;;;;8303440;28;20057;-77
2022/03/08 02:24:45;;;;;;;27.08;11.05;;;;;;;;;;8306226;28;20057;-77
2022/03/08 02:28:51;;;;;;;19.85;9.45;;;;;;;;;;8306416;28;20050;-77
2022/03/08 02:32:53;;;;;;;20.98;8.82;;;;;;;;;;8329576;28;20508;-77
2022/03/08 02:37:04;;;;;;;22.58;9.93;;;;;;;;;;8317828;28;20046;-77
2022/03/08 02:41:07;;;;;;;21.55;9.30;;;;;;;;;;8320242;28;20073;-77
2022/03/08 02:45:12;;;;;;;29.65;11.07;;;;;;;;;;8325157;28;20503;-77
2022/03/08 02:49:14;;;;;;;26.13;10.43;;;;;;;;;;8334731;28;20060;-78
2022/03/08 02:53:17;;;;;;;26.67;11.27;;;;;;;;;;8317266;28;20050;-77
2022/03/08 02:57:21;;;;;;;22.73;10.20;;;;;;;;;;8301792;28;20049;-78
2022/03/08 03:01:24;;;;;;;22.85;10.50;;;;;;;;;;8301933;28;20104;-77
2022/03/08 03:05:26;;;;;;;26.45;12.10;;;;;;;;;;8305213;28;20054;-77
2022/03/08 03:09:29;;;;;;;25.73;11.43;;;;;;;;;;8334202;28;20045;-78
2022/03/08 03:13:33;;;;;;;23.75;9.95;;;;;;;;;;8310293;28;20458;-77
2022/03/08 03:17:36;;;;;;;25.42;9.20;;;;;;;;;;8317006;28;20046;-77
2022/03/08 03:21:38;;;;;;;18.95;8.60;;;;;;;;;;8302385;28;20045;-76
2022/03/08 03:25:41;;;;;;;22.63;9.88;;;;;;;;;;8334473;28;20053;-77
2022/03/08 03:29:45;;;;;;;24.45;9.70;;;;;;;;;;8312881;28;20497;-77
2022/03/08 03:33:47;;;;;;;19.63;9.13;;;;;;;;;;8314645;28;20065;-76
2022/03/08 03:37:50;;;;;;;20.13;9.63;;;;;;;;;;8320325;28;20049;-77
2022/03/08 03:41:52;;;;;;;26.92;10.55;;;;;;;;;;8301136;28;20041;-77
2022/03/08 03:45:56;;;;;;;26.33;9.85;;;;;;;;;;8300712;28;20053;-77
2022/03/08 03:49:59;;;;;;;18.23;8.38;;;;;;;;;;8305165;28;20097;-78
2022/03/08 03:54:01;;;;;;;28.80;9.55;;;;;;;;;;8303856;28;20042;-77
2022/03/08 03:58:04;;;;;;;24.60;10.20;;;;;;;;;;8307983;28;20046;-77
2022/03/08 04:02:08;;;;;;;30.38;11.60;;;;;;;;;;8312567;28;20473;-77
2022/03/08 04:06:10;;;;;;;31.42;12.10;;;;;;;;;;8317769;28;20400;-77
2022/03/08 04:10:14;;;;;;;24.23;11.48;;;;;;;;;;8308292;28;20053;-77
2022/03/08 04:14:17;;;;;;;28.92;11.38;;;;;;;;;;8322847;28;20397;-78
2022/03/08 04:18:21;;;;;;;31.98;12.60;;;;;;;;;;8309719;28;20132;-77
2022/03/08 04:22:24;;;;;;;39.70;13.88;;;;;;;;;;8307963;28;20044;-77
2022/03/08 04:26:27;;;;;;;32.08;12.93;;;;;;;;;;8299770;28;20038;-76
2022/03/08 04:30:29;;;;;;;31.73;11.52;;;;;;;;;;8302581;28;20632;-76
2022/03/08 04:34:33;;;;;;;25.27;11.20;;;;;;;;;;8323228;28;20053;-76
2022/03/08 04:38:36;;;;;;;28.50;12.18;;;;;;;;;;8318650;28;20505;-78
2022/03/08 04:42:38;;;;;;;28.13;11.07;;;;;;;;;;8304238;28;20474;-77
2022/03/08 04:46:41;;;;;;;33.13;13.02;;;;;;;;;;8299108;28;20054;-77
2022/03/08 04:50:45;;;;;;;31.50;11.82;;;;;;;;;;8304191;28;20049;-77
2022/03/08 04:54:48;;;;;;;31.10;13.10;;;;;;;;;;8298948;28;20033;-77
2022/03/08 04:58:50;;;;;;;24.98;10.88;;;;;;;;;;8324167;28;20042;-77
2022/03/08 05:02:53;;;;;;;28.88;12.93;;;;;;;;;;8329136;28;20065;-77
2022/03/08 05:06:56;;;;;;;28.77;11.70;;;;;;;;;;8300613;28;20050;-77
2022/03/08 05:11:01;;;;;;;26.83;11.65;;;;;;;;;;8297317;28;20053;-78
2022/03/08 05:15:08;;;;;;;32.83;12.15;;;;;;;;;;8298014;28;20409;-76
2022/03/08 05:19:11;;;;;;;38.58;13.65;;;;;;;;;;8298192;28;20042;-76
2022/03/08 05:23:15;;;;;;;30.42;12.73;;;;;;;;;;8297718;28;20074;-77
2022/03/08 05:27:22;;;;;;;26.52;11.93;;;;;;;;;;8297232;28;20509;-75
2022/03/08 05:31:36;;;;;;;29.25;12.60;;;;;;;;;;8297729;28;20046;-77
2022/03/08 05:35:41;;;;;;;35.35;12.73;;;;;;;;;;8297714;28;20065;-77
2022/03/08 05:39:45;;;;;;;34.95;13.43;;;;;;;;;;8297710;28;20050;-77
2022/03/08 05:43:49;;;;;;;30.63;12.48;;;;;;;;;;8297736;28;20038;-77
2022/03/08 05:47:52;;;;;;;40.30;14.20;;;;;;;;;;8297067;28;20053;-77
2022/03/08 05:51:55;;;;;;;32.65;13.68;;;;;;;;;;8297308;28;20042;-78
2022/03/08 05:55:59;;;;;;;32.95;14.55;;;;;;;;;;8297391;28;20095;-77
2022/03/08 06:00:02;;;;;;;35.13;14.10;;;;;;;;;;8296926;28;20061;-77
2022/03/08 06:04:05;;;;;;;28.70;13.40;;;;;;;;;;8297312;28;20042;-78
2022/03/08 06:08:07;;;;;;;43.67;15.52;;;;;;;;;;8297699;28;20398;-77
2022/03/08 06:12:11;;;;;;;32.33;13.45;;;;;;;;;;8297288;28;20050;-77
2022/03/08 06:16:14;;;;;;;34.63;12.82;;;;;;;;;;8297408;28;20417;-78
2022/03/08 06:20:17;;;;;;;35.33;14.15;;;;;;;;;;8297433;28;20057;-77
2022/03/08 06:24:19;;;;;;;30.90;11.57;;;;;;;;;;8291110;28;20042;-77
2022/03/08 06:28:23;;;;;;;38.67;14.40;;;;;;;;;;8273230;28;20829;-77
2022/03/08 06:32:26;;;;;;;37.88;14.68;;;;;;;;;;8264153;28;20054;-77
2022/03/08 06:36:29;;;;;;;33.83;14.23;;;;;;;;;;8263936;28;20052;-77
2022/03/08 06:40:32;;;;;;;34.80;13.13;;;;;;;;;;8268588;28;20042;-77
2022/03/08 06:44:38;;;;;;;32.08;12.65;;;;;;;;;;8302720;28;20136;-77
2022/03/08 06:48:41;;;;;;;35.17;12.45;;;;;;;;;;8302251;28;20046;-77
2022/03/08 06:52:44;;;;;;;43.25;15.90;;;;;;;;;;8301581;28;20216;-78
2022/03/08 06:56:47;;;;;;;32.60;13.10;;;;;;;;;;8301856;28;20048;-77
2022/03/08 07:00:51;;;;;;;33.72;14.10;;;;;;;;;;8301464;28;20045;-77
2022/03/08 07:04:57;;;;;;;37.53;13.90;;;;;;;;;;8301633;28;20133;-77
2022/03/08 07:09:04;;;;;;;36.13;14.43;;;;;;;;;;8300250;28;20092;-77
2022/03/08 07:13:07;;;;;;;38.08;15.10;;;;;;;;;;8301272;28;20046;-77
2022/03/08 07:17:11;;;;;;;30.48;14.35;;;;;;;;;;8297843;28;20052;-78
2022/03/08 07:21:14;;;;;;;45.53;14.70;;;;;;;;;;8299843;28;20104;-78
2022/03/08 07:25:17;;;;;;;33.08;13.40;;;;;;;;;;8300704;28;20044;-77
2022/03/08 07:29:19;;;;;;;37.85;14.10;;;;;;;;;;8301199;28;20045;-78
2022/03/08 07:33:23;;;;;;;52.75;18.13;;;;;;;;;;8300681;28;20537;-77
2022/03/08 07:37:26;;;;;;;37.47;15.68;;;;;;;;;;8299824;28;20073;-78
2022/03/08 07:41:29;;;;;;;37.72;14.80;;;;;;;;;;8299572;28;20049;-78
2022/03/08 07:45:32;;;;;;;38.03;16.75;;;;;;;;;;8300412;28;20057;-77
2022/03/08 07:49:36;;;;;;;39.03;15.65;;;;;;;;;;8299656;28;20058;-78
2022/03/08 07:53:40;;;;;;;28.83;13.55;;;;;;;;;;8299653;28;20042;-78
2022/03/08 07:57:43;;;;;;;31.35;14.23;;;;;;;;;;8304994;28;20041;-77
2022/03/08 08:01:46;;;;;;;33.92;15.55;;;;;;;;;;8310701;28;20042;-77
2022/03/08 08:05:50;;;;;;;33.83;13.93;;;;;;;;;;8308636;28;20042;-77
2022/03/08 08:09:53;;;;;;;30.73;14.98;;;;;;;;;;8318710;28;20080;-77
2022/03/08 08:13:56;;;;;;;26.85;12.68;;;;;;;;;;8316993;28;20083;-78
2022/03/08 08:17:59;;;;;;;28.73;13.20;;;;;;;;;;8314383;28;20120;-78
2022/03/08 08:22:03;;;;;;;27.90;11.80;;;;;;;;;;8314369;28;20052;-77
2022/03/08 08:26:05;;;;;;;32.92;14.05;;;;;;;;;;8307877;28;20041;-77
2022/03/08 08:30:11;;;;;;;25.80;11.98;;;;;;;;;;8330704;28;20053;-77
2022/03/08 08:34:14;;;;;;;26.48;12.90;;;;;;;;;;8301302;28;20060;-78
2022/03/08 08:38:18;;;;;;;31.35;12.15;;;;;;;;;;8315161;28;20465;-78
2022/03/08 08:42:21;;;;;;;27.70;12.00;;;;;;;;;;8314232;28;20087;-78
2022/03/08 08:46:23;;;;;;;35.47;16.80;;;;;;;;;;8325269;28;20520;-78
2022/03/08 08:50:26;;;;;;;32.97;13.70;;;;;;;;;;8299328;28;20069;-78
2022/03/08 08:54:31;;;;;;;35.40;16.90;;;;;;;;;;8312705;28;20056;-78
2022/03/08 08:58:34;;;;;;;23.92;12.18;;;;;;;;;;8300741;28;20484;-79
2022/03/08 09:02:40;;;;;;;22.33;10.32;;;;;;;;;;8299130;28;20050;-79
2022/03/08 09:06:43;;;;;;;28.85;13.30;;;;;;;;;;8306208;28;20049;-79
2022/03/08 09:10:48;;;;;;;17.55;9.75;;;;;;;;;;8311131;28;20448;-78
2022/03/08 09:14:51;;;;;;;24.83;12.60;;;;;;;;;;8317244;28;20065;-78
2022/03/08 09:18:53;;;;;;;26.83;11.07;;;;;;;;;;8296267;28;20081;-78
2022/03/08 09:22:59;;;;;;;26.25;12.95;;;;;;;;;;8298378;28;20525;-78
2022/03/08 09:27:12;;;;;;;20.00;9.45;;;;;;;;;;8296071;28;20045;-79
2022/03/08 09:31:17;;;;;;;21.52;10.95;;;;;;;;;;8294866;28;20046;-78
2022/03/08 09:35:19;;;;;;;23.13;11.43;;;;;;;;;;8294873;28;20149;-79
2022/03/08 09:39:23;;;;;;;21.48;10.52;;;;;;;;;;8295724;28;20394;-79
2022/03/08 09:43:28;;;;;;;23.25;10.00;;;;;;;;;;8295169;28;20046;-78
2022/03/08 09:47:31;;;;;;;19.08;10.15;;;;;;;;;;8296796;28;20041;-79
2022/03/08 09:51:42;;;;;;;17.35;9.18;;;;;;;;;;8297735;28;20078;-79
2022/03/08 09:55:47;;;;;;;17.27;8.77;;;;;;;;;;8297261;28;20057;-78
2022/03/08 09:59:53;;;;;;;17.73;9.45;;;;;;;;;;8297291;28;20076;-79
2022/03/08 10:03:56;;;;;;;17.60;8.63;;;;;;;;;;8296565;28;20057;-79
2022/03/08 10:08:10;;;;;;;17.98;8.43;;;;;;;;;;8296986;28;20057;-79
2022/03/08 10:12:18;;;;;;;18.25;9.35;;;;;;;;;;8297241;28;20097;-79
2022/03/08 10:16:30;;;;;;;17.15;8.88;;;;;;;;;;8302997;28;20050;-79
2022/03/08 10:20:34;;;;;;;18.10;8.73;;;;;;;;;;8302968;28;20456;-78
2022/03/08 10:24:39;;;;;;;17.23;8.43;;;;;;;;;;8285263;28;20045;-78
2022/03/08 10:28:47;;;;;;;16.20;9.88;;;;;;;;;;8301191;28;20042;-78
2022/03/08 10:32:54;;;;;;;24.02;12.15;;;;;;;;;;8293323;28;20058;-78
2022/03/08 10:37:09;;;;;;;22.13;11.05;;;;;;;;;;8294117;28;20056;-79
2022/03/08 10:41:20;;;;;;;20.73;11.05;;;;;;;;;;8268766;28;20046;-78
2022/03/08 10:45:29;;;;;;;17.77;9.75;;;;;;;;;;8298219;28;20050;-79
2022/03/08 10:49:47;;;;;;;19.50;10.90;;;;;;;;;;8284404;28;20051;-77
2022/03/08 10:54:11;;;;;;;24.00;11.77;;;;;;;;;;8265954;28;20039;-79
2022/03/08 10:58:16;;;;;;;21.70;12.45;;;;;;;;;;8265099;28;20064;-79
2022/03/08 11:02:23;;;;;;;19.08;9.57;;;;;;;;;;8295840;28;20052;-78
2022/03/08 11:06:27;;;;;;;18.65;9.93;;;;;;;;;;8256625;28;20041;-78
2022/03/08 11:10:32;;;;;;;16.33;8.38;;;;;;;;;;8269980;28;20418;-79
2022/03/08 11:14:35;;;;;;;14.63;6.72;;;;;;;;;;8281032;28;20046;-78
2022/03/08 11:18:39;;;;;;;16.95;9.45;;;;;;;;;;8277320;28;20453;-78
2022/03/08 11:22:44;;;;;;;19.20;9.35;;;;;;;;;;8272507;28;20077;-79
2022/03/08 11:26:48;;;;;;;11.93;7.55;;;;;;;;;;8269295;28;20049;-78
2022/03/08 11:30:53;;;;;;;19.00;10.02;;;;;;;;;;8268288;28;20478;-79
2022/03/08 11:35:02;;;;;;;19.02;10.40;;;;;;;;;;8247961;28;20082;-77
2022/03/08 11:39:19;;;;;;;17.60;9.82;;;;;;;;;;8266004;28;20057;-77
2022/03/08 11:43:36;;;;;;;18.02;10.02;;;;;;;;;;8262635;28;20038;-78
2022/03/08 11:47:42;;;;;;;17.23;9.60;;;;;;;;;;8267283;28;20054;-77
2022/03/08 11:52:12;;;;;;;23.10;10.75;;;;;;;;;;8267274;28;20079;-78
2022/03/08 11:56:24;;;;;;;20.05;10.90;;;;;;;;;;8267676;28;20113;-78
2022/03/08 12:00:34;;;;;;;22.60;12.80;;;;;;;;;;8266740;28;20046;-78
2022/03/08 12:04:45;;;;;;;21.55;10.27;;;;;;;;;;8266461;28;20057;-78
2022/03/08 12:08:49;;;;;;;22.57;10.93;;;;;;;;;;8265066;28;20050;-79
2022/03/08 12:12:56;;;;;;;25.67;9.90;;;;;;;;;;8266530;28;20298;-77
2022/03/08 12:17:11;;;;;;;15.88;9.68;;;;;;;;;;8267322;28;20495;-78
2022/03/08 12:21:34;;;;;;;16.80;10.00;;;;;;;;;;8266748;28;20043;-77
2022/03/08 12:25:37;;;;;;;20.30;11.38;;;;;;;;;;8265981;28;20077;-77
2022/03/08 12:29:55;;;;;;;14.82;7.93;;;;;;;;;;8265978;28;20069;-77
2022/03/08 12:34:04;;;;;;;20.52;8.50;;;;;;;;;;8274581;28;20516;-77
2022/03/08 12:38:08;;;;;;;21.33;10.00;;;;;;;;;;8294950;28;20478;-77
2022/03/08 12:42:18;;;;;;;20.73;10.13;;;;;;;;;;8297731;28;20048;-79
2022/03/08 12:46:23;;;;;;;17.90;9.02;;;;;;;;;;8280016;28;20050;-78
2022/03/08 12:50:29;;;;;;;20.55;11.18;;;;;;;;;;8287009;28;20049;-77
2022/03/08 12:54:37;;;;;;;25.25;12.57;;;;;;;;;;8297775;28;20129;-77
2022/03/08 12:58:41;;;;;;;20.23;11.07;;;;;;;;;;8297523;28;20046;-78
2022/03/08 13:02:48;;;;;;;21.25;10.73;;;;;;;;;;8298167;28;20125;-77
2022/03/08 13:07:07;;;;;;;25.13;11.73;;;;;;;;;;8310813;28;20045;-78
2022/03/08 13:11:11;;;;;;;22.55;12.20;;;;;;;;;;8314101;28;20050;-77
2022/03/08 13:15:16;;;;;;;27.65;13.65;;;;;;;;;;8297659;28;20056;-77
2022/03/08 13:19:21;;;;;;;23.33;12.18;;;;;;;;;;8299439;28;20068;-77
2022/03/08 13:23:26;;;;;;;27.83;13.23;;;;;;;;;;8300544;28;20444;-77
2022/03/08 13:27:29;;;;;;;35.33;12.93;;;;;;;;;;8300417;28;20133;-77
2022/03/08 13:31:32;;;;;;;21.42;11.60;;;;;;;;;;8298196;28;20046;-80
2022/03/08 13:35:40;;;;;;;19.55;9.88;;;;;;;;;;8297311;28;20054;-79
2022/03/08 13:39:46;;;;;;;17.10;8.43;;;;;;;;;;8298655;28;20045;-78
2022/03/08 13:43:53;;;;;;;14.70;7.47;;;;;;;;;;8298522;28;20429;-79
2022/03/08 13:47:58;;;;;;;15.68;7.55;;;;;;;;;;8309035;28;20485;-78
2022/03/08 13:52:02;;;;;;;18.23;10.20;;;;;;;;;;8302472;28;20080;-79
2022/03/08 13:56:07;;;;;;;20.40;10.23;;;;;;;;;;8316663;28;20046;-77
2022/03/08 14:00:11;;;;;;;11.15;5.32;;;;;;;;;;8317594;28;20048;-78
2022/03/08 14:04:27;;;;;;;12.45;5.82;;;;;;;;;;8286317;28;20118;-78
2022/03/08 14:08:33;;;;;;;8.50;5.18;;;;;;;;;;8317192;28;20469;-78
2022/03/08 14:12:43;;;;;;;7.70;4.78;;;;;;;;;;8318408;28;20140;-78
2022/03/08 14:16:47;;;;;;;9.00;5.40;;;;;;;;;;8302731;28;20220;-78
2022/03/08 14:20:51;;;;;;;11.07;6.70;;;;;;;;;;8305072;28;20041;-78
2022/03/08 14:25:05;;;;;;;16.15;6.75;;;;;;;;;;8321236;28;20045;-78
2022/03/08 14:29:19;;;;;;;14.05;7.47;;;;;;;;;;8293130;28;20133;-78
2022/03/08 14:33:22;;;;;;;12.48;5.97;;;;;;;;;;8298586;28;20169;-79
2022/03/08 14:37:26;;;;;;;9.63;5.70;;;;;;;;;;8302349;28;20408;-78
2022/03/08 14:41:30;;;;;;;14.13;7.20;;;;;;;;;;8300487;28;20049;-79
2022/03/08 14:45:34;;;;;;;11.45;5.95;;;;;;;;;;8285656;28;20042;-79
2022/03/08 14:49:39;;;;;;;15.70;7.78;;;;;;;;;;8306818;28;20049;-79
2022/03/08 14:53:44;;;;;;;15.73;8.23;;;;;;;;;;8317428;28;20045;-78
2022/03/08 14:57:50;;;;;;;13.45;6.85;;;;;;;;;;8331428;28;20084;-78
2022/03/08 15:01:55;;;;;;;15.40;7.60;;;;;;;;;;8312533;28;20045;-78
2022/03/08 15:06:00;;;;;;;14.70;7.88;;;;;;;;;;8330869;28;20045;-78
2022/03/08 15:10:04;;;;;;;12.52;7.82;;;;;;;;;;8331425;28;20124;-78
2022/03/08 15:14:09;;;;;;;17.15;8.35;;;;;;;;;;8334797;28;20053;-77
2022/03/08 15:18:12;;;;;;;14.73;7.13;;;;;;;;;;8334457;28;20045;-78
2022/03/08 15:22:23;;;;;;;11.82;6.55;;;;;;;;;;8306291;28;20445;-78
2022/03/08 15:26:44;;;;;;;13.70;7.68;;;;;;;;;;8301414;28;20060;-78
2022/03/08 15:30:51;;;;;;;13.13;7.85;;;;;;;;;;8292482;28;20569;-78
2022/03/08 15:35:04;;;;;;;18.48;8.43;;;;;;;;;;8295463;28;20486;-79
2022/03/08 15:39:14;;;;;;;16.80;7.50;;;;;;;;;;8314566;28;20045;-79
2022/03/08 15:43:18;;;;;;;13.68;7.20;;;;;;;;;;8308692;28;20129;-79
2022/03/08 15:47:25;;;;;;;16.23;8.23;;;;;;;;;;8310599;28;20065;-80
2022/03/08 15:51:35;;;;;;;13.45;7.35;;;;;;;;;;8314210;28;20045;-83
2022/03/08 15:55:44;;;;;;;14.23;6.95;;;;;;;;;;8333417;28;20075;-80
2022/03/08 15:59:51;;;;;;;21.55;11.63;;;;;;;;;;8319926;28;20042;-82
2022/03/08 16:04:01;;;;;;;21.50;9.85;;;;;;;;;;8305000;28;20037;-81
2022/03/08 16:08:07;;;;;;;22.63;10.43;;;;;;;;;;8314417;28;20410;-80
2022/03/08 16:12:12;;;;;;;34.25;15.90;;;;;;;;;;8308489;28;20540;-79
2022/03/08 16:16:21;;;;;;;20.30;9.40;;;;;;;;;;8304049;28;20386;-78
2022/03/08 16:20:26;;;;;;;24.88;12.52;;;;;;;;;;8298377;28;20409;-79
2022/03/08 16:24:31;;;;;;;21.23;11.25;;;;;;;;;;8307417;28;20412;-79
2022/03/08 16:28:48;;;;;;;21.70;11.93;;;;;;;;;;8312707;28;20053;-78
2022/03/08 16:32:56;;;;;;;25.40;12.85;;;;;;;;;;8318526;28;20069;-77
2022/03/08 16:37:27;;;;;;;55.65;27.33;;;;;;;;;;8317255;28;20046;-78
2022/03/08 16:41:32;;;;;;;38.42;17.35;;;;;;;;;;8298701;28;20081;-78
2022/03/08 16:45:36;;;;;;;36.40;16.80;;;;;;;;;;8323482;28;20115;-78
2022/03/08 16:49:43;;;;;;;35.55;16.13;;;;;;;;;;8311171;28;20045;-79
2022/03/08 16:53:55;;;;;;;47.80;20.08;;;;;;;;;;8307058;28;20095;-80
2022/03/08 16:58:00;;;;;;;43.78;18.95;;;;;;;;;;8317219;28;20477;-80
2022/03/08 17:02:05;;;;;;;52.05;20.80;;;;;;;;;;8310647;28;20033;-79
2022/03/08 17:06:09;;;;;;;47.08;20.00;;;;;;;;;;8301070;28;20045;-80
2022/03/08 17:10:13;;;;;;;55.10;20.52;;;;;;;;;;8299305;28;20063;-79
2022/03/08 17:14:18;;;;;;;52.72;21.77;;;;;;;;;;8304725;28;20046;-79
2022/03/08 17:18:22;;;;;;;54.65;20.60;;;;;;;;;;8297205;28;20474;-80
2022/03/08 17:22:29;;;;;;;42.47;17.65;;;;;;;;;;8297782;28;20042;-80
2022/03/08 17:26:36;;;;;;;43.97;18.65;;;;;;;;;;8312543;28;20042;-78
2022/03/08 17:30:41;;;;;;;38.83;18.80;;;;;;;;;;8308290;28;20049;-80
2022/03/08 17:34:43;;;;;;;38.58;16.73;;;;;;;;;;8310272;28;20136;-80
2022/03/08 17:38:49;;;;;;;29.20;14.95;;;;;;;;;;8315528;28;20486;-77
2022/03/08 17:42:55;;;;;;;57.92;24.45;;;;;;;;;;8303228;28;20050;-78
2022/03/08 17:46:58;;;;;;;31.40;15.05;;;;;;;;;;8312709;28;20046;-80
2022/03/08 17:51:01;;;;;;;55.47;25.45;;;;;;;;;;8314682;28;20145;-82
2022/03/08 17:55:06;;;;;;;78.45;34.00;;;;;;;;;;8305967;28;20042;-78
2022/03/08 17:59:15;;;;;;;169.93;47.72;;;;;;;;;;8305951;28;20077;-79
2022/03/08 18:03:22;;;;;;;62.90;28.33;;;;;;;;;;8308051;28;20053;-78
2022/03/08 18:07:25;;;;;;;52.08;22.52;;;;;;;;;;8299472;28;20046;-78
2022/03/08 18:11:30;;;;;;;49.03;23.55;;;;;;;;;;8285076;28;20042;-78
2022/03/08 18:15:36;;;;;;;41.78;20.02;;;;;;;;;;8324681;28;20068;-78
2022/03/08 18:19:52;;;;;;;40.80;17.02;;;;;;;;;;8328338;28;20056;-78
2022/03/08 18:23:56;;;;;;;43.35;17.75;;;;;;;;;;8321825;28;20088;-81
2022/03/08 18:28:03;;;;;;;32.95;16.20;;;;;;;;;;8329583;28;20305;-78
2022/03/08 18:32:08;;;;;;;47.33;18.80;;;;;;;;;;8296025;28;20253;-77
2022/03/08 18:36:12;;;;;;;38.55;18.27;;;;;;;;;;8299280;28;20510;-77
2022/03/08 18:40:23;;;;;;;40.90;19.73;;;;;;;;;;8300068;28;20097;-78
2022/03/08 18:44:31;;;;;;;67.53;26.38;;;;;;;;;;8299085;28;20063;-77
2022/03/08 18:48:37;;;;;;;81.65;26.63;;;;;;;;;;8305238;28;20054;-77
2022/03/08 18:52:44;;;;;;;51.75;23.23;;;;;;;;;;8302446;28;20527;-78
2022/03/08 18:56:56;;;;;;;187.15;48.83;;;;;;;;;;8284303;28;20073;-77
2022/03/08 19:01:02;;;;;;;339.73;89.88;;;;;;;;;;8302038;28;20122;-78
2022/03/08 19:05:15;;;;;;;291.65;81.10;;;;;;;;;;8283091;28;20114;-76
2022/03/08 19:09:24;;;;;;;279.40;73.30;;;;;;;;;;8297986;28;20528;-77
2022/03/08 19:13:36;;;;;;;187.40;49.53;;;;;;;;;;8320116;28;20046;-76
2022/03/08 19:17:44;;;;;;;128.25;37.85;;;;;;;;;;8297295;28;20128;-77
2022/03/08 19:21:52;;;;;;;181.32;54.42;;;;;;;;;;8300675;28;20054;-77
2022/03/08 19:25:57;;;;;;;67.28;24.23;;;;;;;;;;8302855;28;20053;-77
2022/03/08 19:30:00;;;;;;;116.65;35.15;;;;;;;;;;8306815;28;20073;-78
2022/03/08 19:34:07;;;;;;;91.93;30.67;;;;;;;;;;8300172;28;20409;-79
2022/03/08 19:38:43;;;;;;;93.50;32.53;;;;;;;;;;8326241;28;20464;-78
2022/03/08 19:42:46;;;;;;;83.78;28.05;;;;;;;;;;8311451;28;20053;-79
2022/03/08 19:46:57;;;;;;;86.72;30.80;;;;;;;;;;8297949;28;20124;-78
2022/03/08 19:51:17;;;;;;;72.30;25.07;;;;;;;;;;8300604;28;20383;-78
2022/03/08 19:55:51;;;;;;;70.97;25.92;;;;;;;;;;8326092;28;20044;-79
2022/03/08 20:00:31;;;;;;;75.05;28.90;;;;;;;;;;8323674;28;20485;-79
2022/03/08 20:04:44;;;;;;;116.40;32.60;;;;;;;;;;8290570;28;20128;-79
2022/03/08 20:09:25;;;;;;;141.93;38.22;;;;;;;;;;8294184;28;20414;-79
2022/03/08 20:13:31;;;;;;;135.07;36.28;;;;;;;;;;8282356;28;20057;-77
2022/03/08 20:17:49;;;;;;;139.10;38.42;;;;;;;;;;8310011;28;20050;-78
2022/03/08 20:21:55;;;;;;;119.68;34.70;;;;;;;;;;8311337;28;20042;-79
2022/03/08 20:26:00;;;;;;;132.85;39.10;;;;;;;;;;8296696;28;20299;-78
2022/03/08 20:30:06;;;;;;;138.98;38.72;;;;;;;;;;8309461;28;20401;-78
2022/03/08 20:34:13;;;;;;;143.98;39.25;;;;;;;;;;8302416;28;20057;-78
2022/03/08 20:38:21;;;;;;;144.27;38.33;;;;;;;;;;8298085;28;20042;-77
2022/03/08 20:42:28;;;;;;;150.13;42.63;;;;;;;;;;8296931;28;20057;-77
2022/03/08 20:46:39;;;;;;;121.90;38.58;;;;;;;;;;8297201;28;20457;-79
2022/03/08 20:51:16;;;;;;;133.77;37.92;;;;;;;;;;8295185;28;20096;-77
2022/03/08 20:55:25;;;;;;;133.05;40.28;;;;;;;;;;8295805;28;20054;-77
2022/03/08 20:59:40;;;;;;;152.98;47.38;;;;;;;;;;8311602;28;20142;-78
2022/03/08 21:03:53;;;;;;;144.60;44.17;;;;;;;;;;8315441;28;20050;-78
2022/03/08 21:08:07;;;;;;;149.15;42.85;;;;;;;;;;8299197;28;20184;-78
2022/03/08 21:12:10;;;;;;;140.02;43.13;;;;;;;;;;8296555;28;20050;-76
2022/03/08 21:16:14;;;;;;;134.40;43.40;;;;;;;;;;8298122;28;20041;-77
2022/03/08 21:20:21;;;;;;;131.40;42.67;;;;;;;;;;8298062;28;20058;-76
2022/03/08 21:24:32;;;;;;;146.00;47.35;;;;;;;;;;8297997;28;20046;-77
2022/03/08 21:28:39;;;;;;;359.77;89.73;;;;;;;;;;8299198;28;20049;-78
2022/03/08 21:32:46;;;;;;;438.47;108.97;;;;;;;;;;8295222;28;20058;-76
2022/03/08 21:36:52;;;;;;;610.72;176.10;;;;;;;;;;8299062;28;20038;-77
2022/03/08 21:40:57;;;;;;;422.80;111.93;;;;;;;;;;8308295;28;20100;-78
2022/03/08 21:45:00;;;;;;;146.32;51.05;;;;;;;;;;8294082;28;20505;-77
2022/03/08 21:49:04;;;;;;;115.72;41.20;;;;;;;;;;8297129;28;20050;-77
2022/03/08 21:53:09;;;;;;;98.50;36.97;;;;;;;;;;8296752;28;20049;-77
2022/03/08 21:57:12;;;;;;;208.35;59.72;;;;;;;;;;8296673;28;20046;-77
2022/03/08 22:01:16;;;;;;;198.10;61.50;;;;;;;;;;8296793;28;20508;-77
2022/03/08 22:05:20;;;;;;;104.75;36.47;;;;;;;;;;8296970;28;20197;-77
2022/03/08 22:09:24;;;;;;;91.07;35.40;;;;;;;;;;8298588;28;20446;-78
2022/03/08 22:13:27;;;;;;;86.32;34.58;;;;;;;;;;8288966;28;20046;-78
2022/03/08 22:17:30;;;;;;;104.75;37.30;;;;;;;;;;8287750;28;20058;-78
2022/03/08 22:21:33;;;;;;;114.82;37.00;;;;;;;;;;8302976;28;20049;-75
2022/03/08 22:25:37;;;;;;;123.90;40.58;;;;;;;;;;8303509;28;20053;-78
2022/03/08 22:29:40;;;;;;;123.10;44.97;;;;;;;;;;8302528;28;20058;-79
2022/03/08 22:33:43;;;;;;;118.72;40.92;;;;;;;;;;8302396;28;20512;-79
2022/03/08 22:37:45;;;;;;;109.00;39.33;;;;;;;;;;8282065;28;20050;-79
2022/03/08 22:41:49;;;;;;;113.95;40.00;;;;;;;;;;8283869;28;20482;-76
2022/03/08 22:45:55;;;;;;;108.82;39.90;;;;;;;;;;8299981;28;20460;-77
2022/03/08 22:54:37;;;;;;;114.95;40.58;;;;;;;;;;8233242;28;20050;-79
2022/03/08 22:58:49;;;;;;;126.57;40.90;;;;;;;;;;8286826;28;20046;-77
2022/03/08 23:02:58;;;;;;;101.00;40.38;;;;;;;;;;8279395;28;20557;-78
2022/03/08 23:07:04;;;;;;;115.50;41.38;;;;;;;;;;8293096;28;20081;-77
2022/03/08 23:11:11;;;;;;;102.80;38.25;;;;;;;;;;8271308;28;20046;-77
2022/03/08 23:15:18;;;;;;;106.38;38.97;;;;;;;;;;8269480;28;20101;-77
2022/03/08 23:19:20;;;;;;;103.35;38.85;;;;;;;;;;8269096;28;20054;-77
2022/03/08 23:23:23;;;;;;;143.93;49.22;;;;;;;;;;8267998;28;20050;-78
2022/03/08 23:27:26;;;;;;;117.15;42.10;;;;;;;;;;8268517;28;20050;-77
2022/03/08 23:31:30;;;;;;;129.25;44.35;;;;;;;;;;8283148;28;20061;-77
2022/03/08 23:35:32;;;;;;;129.20;49.00;;;;;;;;;;8267642;28;20054;-77
2022/03/08 23:39:35;;;;;;;124.22;44.42;;;;;;;;;;8267660;28;20054;-77
2022/03/08 23:43:37;;;;;;;123.40;46.47;;;;;;;;;;8267686;28;20046;-77
2022/03/08 23:47:41;;;;;;;150.95;53.13;;;;;;;;;;8276453;28;20081;-77
2022/03/08 23:51:44;;;;;;;138.52;47.80;;;;;;;;;;8267461;28;20438;-77
2022/03/08 23:55:47;;;;;;;134.25;47.78;;;;;;;;;;8268297;28;20505;-77
2022/03/08 23:59:49;;;;;;;126.82;45.50;;;;;;;;;;8270485;28;20858;-77
